createdAt,value
2022-08-03T00:01:37.115Z,101387.91
2022-08-03T00:04:07.951Z,101392.38
2022-08-03T00:06:37.234Z,101396.06
2022-08-03T00:09:08.417Z,101390.72
2022-08-03T00:11:36.854Z,101392.63
2022-08-03T00:14:06.334Z,101389.97
2022-08-03T00:16:34.109Z,101387.25
2022-08-03T00:19:03.399Z,101397.22
2022-08-03T00:21:30.835Z,101393.69
2022-08-03T00:23:58.173Z,101398.25
2022-08-03T00:26:25.590Z,101391.94
2022-08-03T00:28:52.985Z,101392.88
2022-08-03T00:31:40.258Z,101395.56
2022-08-03T00:34:07.709Z,101391.13
2022-08-03T00:36:35.770Z,101390.25
2022-08-03T00:39:03.326Z,101392.16
2022-08-03T00:41:30.721Z,101393.88
2022-08-03T00:43:58.066Z,101392.97
2022-08-03T00:46:25.436Z,101386.81
2022-08-03T00:48:53.354Z,101382.41
2022-08-03T00:51:24.152Z,101387.81
2022-08-03T00:53:52.028Z,101381.63
2022-08-03T00:56:19.394Z,101373.63
2022-08-03T00:58:47.343Z,101375.34
2022-08-03T01:01:15.427Z,101373.75
2022-08-03T01:03:43.225Z,101373.78
2022-08-03T01:06:25.599Z,101371.06
2022-08-03T01:09:07.280Z,101372.97
2022-08-03T01:11:37.453Z,101359.59
2022-08-03T01:15:00.455Z,101371.16
2022-08-03T01:17:49.719Z,101366.69
2022-08-03T01:20:19.246Z,101365.94
2022-08-03T01:23:16.309Z,101369.59
2022-08-03T01:26:03.572Z,101365.09
2022-08-03T01:28:58.651Z,101366.84
2022-08-03T01:32:53.532Z,101361.59
2022-08-03T01:35:22.284Z,101358.97
2022-08-03T01:38:01.238Z,101354.50
2022-08-03T01:40:30.436Z,101359.97
2022-08-03T01:43:00.047Z,101365.28
2022-08-03T01:45:28.748Z,101355.56
2022-08-03T01:48:02.658Z,101350.22
2022-08-03T01:50:31.803Z,101361.81
2022-08-03T01:53:00.146Z,101355.66
2022-08-03T01:55:29.511Z,101347.66
2022-08-03T01:58:04.784Z,101359.25
2022-08-03T02:00:37.814Z,101353.06
2022-08-03T02:03:07.402Z,101346.03
2022-08-03T02:05:36.347Z,101341.53
2022-08-03T02:08:07.790Z,101348.66
2022-08-03T02:10:37.771Z,101341.53
2022-08-03T02:13:08.609Z,101345.09
2022-08-03T02:15:38.637Z,101347.84
2022-08-03T02:18:08.755Z,101346.97
2022-08-03T02:20:39.057Z,101353.03
2022-08-03T02:23:07.301Z,101346.88
2022-08-03T02:25:41.783Z,101346.88
2022-08-03T02:28:17.267Z,101341.63
2022-08-03T02:30:51.829Z,101358.59
2022-08-03T02:33:26.738Z,101345.28
2022-08-03T02:35:54.319Z,101342.63
2022-08-03T02:38:28.201Z,101339.97
2022-08-03T02:40:57.479Z,101349.69
2022-08-03T02:43:25.636Z,101347.06
2022-08-03T02:45:54.467Z,101346.25
2022-08-03T02:48:26.966Z,101341.88
2022-08-03T02:50:57.171Z,101340.22
2022-08-03T02:53:28.921Z,101346.41
2022-08-03T02:55:56.856Z,101343.84
2022-08-03T02:58:25.896Z,101329.75
2022-08-03T03:00:54.443Z,101334.16
2022-08-03T03:03:22.556Z,101343.81
2022-08-03T03:05:52.960Z,101332.28
2022-08-03T03:08:27.474Z,101328.78
2022-08-03T03:11:01.640Z,101327.00
2022-08-03T03:13:32.433Z,101328.03
2022-08-03T03:16:03.855Z,101325.34
2022-08-03T03:18:33.671Z,101325.34
2022-08-03T03:21:03.831Z,101321.88
2022-08-03T03:23:32.349Z,101321.00
2022-08-03T03:26:02.406Z,101318.25
2022-08-03T03:28:30.874Z,101314.78
2022-08-03T03:30:59.293Z,101319.25
2022-08-03T03:33:28.477Z,101314.75
2022-08-03T03:35:57.671Z,101313.88
2022-08-03T03:38:25.071Z,101323.59
2022-08-03T03:40:52.603Z,101331.66
2022-08-03T03:43:20.116Z,101322.81
2022-08-03T03:45:51.673Z,101328.94
2022-08-03T03:48:23.753Z,101323.72
2022-08-03T03:50:51.299Z,101319.25
2022-08-03T03:53:18.864Z,101327.28
2022-08-03T03:55:59.406Z,101327.25
2022-08-03T03:58:31.082Z,101323.78
2022-08-03T04:00:58.613Z,101326.47
2022-08-03T04:03:25.979Z,101320.31
2022-08-03T04:06:11.857Z,101327.38
2022-08-03T04:08:59.002Z,101316.84
2022-08-03T04:11:30.387Z,101319.53
2022-08-03T04:14:19.318Z,101320.41
2022-08-03T04:17:05.078Z,101325.72
2022-08-03T04:19:35.759Z,101323.03
2022-08-03T04:22:09.914Z,101324.81
2022-08-03T04:24:49.849Z,101326.63
2022-08-03T04:27:21.782Z,101332.00
2022-08-03T04:29:51.795Z,101330.19
2022-08-03T04:32:20.848Z,101330.19
2022-08-03T04:34:48.409Z,101335.53
2022-08-03T04:37:36.152Z,101342.66
2022-08-03T04:40:08.907Z,101340.88
2022-08-03T04:42:39.611Z,101347.13
2022-08-03T04:45:10.047Z,101354.22
2022-08-03T04:47:39.133Z,101347.00
2022-08-03T04:50:12.219Z,101348.72
2022-08-03T04:52:40.994Z,101354.97
2022-08-03T04:55:08.906Z,101354.03
2022-08-03T04:57:37.500Z,101354.06
2022-08-03T05:00:06.803Z,101356.66
2022-08-03T05:02:35.111Z,101361.09
2022-08-03T05:05:02.448Z,101365.50
2022-08-03T05:07:36.616Z,101364.53
2022-08-03T05:10:15.186Z,101364.53
2022-08-03T05:12:44.683Z,101367.94
2022-08-03T05:15:12.859Z,101368.66
2022-08-03T05:17:40.575Z,101366.94
2022-08-03T05:20:08.759Z,101374.88
2022-08-03T05:22:36.135Z,101372.16
2022-08-03T05:25:03.734Z,101369.34
2022-08-03T05:27:31.183Z,101371.00
2022-08-03T05:30:31.110Z,101376.22
2022-08-03T05:32:46.518Z,101393.28
2022-08-03T05:35:55.907Z,101394.72
2022-08-03T05:38:02.737Z,101382.28
2022-08-03T05:40:31.184Z,101377.56
2022-08-03T05:42:58.965Z,101385.75
2022-08-03T05:45:28.354Z,101386.97
2022-08-03T05:47:56.337Z,101381.19
2022-08-03T05:50:24.402Z,101380.81
2022-08-03T05:52:55.252Z,101388.41
2022-08-03T05:55:22.752Z,101388.25
2022-08-03T05:57:50.182Z,101377.13
2022-08-03T06:00:18.128Z,101383.16
2022-08-03T06:02:46.487Z,101377.66
2022-08-03T06:05:13.920Z,101380.19
2022-08-03T06:07:41.349Z,101380.97
2022-08-03T06:10:36.157Z,101376.34
2022-08-03T06:12:56.735Z,101374.34
2022-08-03T06:15:24.152Z,101372.34
2022-08-03T06:17:52.619Z,101380.34
2022-08-03T06:20:21.440Z,101382.84
2022-08-03T06:23:00.156Z,101384.44
2022-08-03T06:25:28.953Z,101382.69
2022-08-03T06:27:56.520Z,101387.75
2022-08-03T06:30:24.734Z,101383.13
2022-08-03T06:32:52.544Z,101380.44
2022-08-03T06:35:20.665Z,101383.88
2022-08-03T06:37:51.091Z,101383.63
2022-08-03T06:40:31.203Z,101385.59
2022-08-03T06:42:59.895Z,101392.75
2022-08-03T06:45:31.912Z,101392.50
2022-08-03T06:48:08.236Z,101390.75
2022-08-03T06:50:37.796Z,101387.94
2022-08-03T06:53:05.976Z,101386.06
2022-08-03T06:55:33.723Z,101397.56
2022-08-03T06:58:09.237Z,101394.56
2022-08-03T07:00:36.656Z,101402.66
2022-08-03T07:03:04.279Z,101391.75
2022-08-03T07:05:33.592Z,101399.25
2022-08-03T07:08:02.024Z,101399.19
2022-08-03T07:10:29.560Z,101401.78
2022-08-03T07:12:57.056Z,101410.75
2022-08-03T07:15:53.907Z,101403.59
2022-08-03T07:18:12.892Z,101402.59
2022-08-03T07:20:40.894Z,101405.06
2022-08-03T07:23:08.238Z,101397.59
2022-08-03T07:25:35.903Z,101406.69
2022-08-03T07:28:03.787Z,101410.34
2022-08-03T07:30:31.193Z,101415.72
2022-08-03T07:32:58.652Z,101420.19
2022-08-03T07:35:26.442Z,101421.25
2022-08-03T07:37:55.128Z,101417.75
2022-08-03T07:40:23.126Z,101412.38
2022-08-03T07:42:53.659Z,101414.19
2022-08-03T07:45:24.629Z,101411.78
2022-08-03T07:47:53.665Z,101409.00
2022-08-03T07:50:22.276Z,101415.97
2022-08-03T07:52:51.575Z,101413.06
2022-08-03T07:55:20.690Z,101416.63
2022-08-03T07:57:58.964Z,101417.34
2022-08-03T08:00:26.444Z,101411.34
2022-08-03T08:02:53.753Z,101411.41
2022-08-03T08:05:21.233Z,101407.91
2022-08-03T08:07:51.444Z,101402.38
2022-08-03T08:10:19.434Z,101399.63
2022-08-03T08:12:47.294Z,101401.69
2022-08-03T08:15:14.879Z,101402.50
2022-08-03T08:17:50.654Z,101396.41
2022-08-03T08:20:34.885Z,101400.31
2022-08-03T08:23:09.603Z,101393.47
2022-08-03T08:25:56.209Z,101399.38
2022-08-03T08:28:32.338Z,101396.09
2022-08-03T08:31:01.539Z,101397.97
2022-08-03T08:33:42.063Z,101385.88
2022-08-03T08:36:15.876Z,101393.97
2022-08-03T08:38:45.121Z,101393.53
2022-08-03T08:41:13.968Z,101394.13
2022-08-03T08:43:42.090Z,101390.53
2022-08-03T08:46:13.130Z,101389.47
2022-08-03T08:48:51.900Z,101389.53
2022-08-03T08:51:21.966Z,101388.13
2022-08-03T08:53:53.034Z,101384.13
2022-08-03T08:56:22.927Z,101390.91
2022-08-03T08:58:58.037Z,101390.00
2022-08-03T09:01:26.213Z,101388.94
2022-08-03T09:03:54.773Z,101391.50
2022-08-03T09:06:23.110Z,101391.25
2022-08-03T09:08:50.685Z,101388.88
2022-08-03T09:11:51.664Z,101391.84
2022-08-03T09:14:36.585Z,101391.16
2022-08-03T09:17:02.175Z,101392.72
2022-08-03T09:19:31.708Z,101392.59
2022-08-03T09:22:17.464Z,101393.53
2022-08-03T09:25:24.380Z,101392.66
2022-08-03T09:27:52.178Z,101390.47
2022-08-03T09:30:34.235Z,101383.84
2022-08-03T09:33:10.865Z,101391.56
2022-08-03T09:35:55.318Z,101391.22
2022-08-03T09:38:28.493Z,101385.84
2022-08-03T09:41:00.410Z,101386.81
2022-08-03T09:43:28.695Z,101384.47
2022-08-03T09:46:07.498Z,101387.03
2022-08-03T09:48:36.847Z,101391.47
2022-08-03T09:51:12.795Z,101385.72
2022-08-03T09:53:58.781Z,101387.81
2022-08-03T09:56:39.116Z,101392.66
2022-08-03T09:59:06.715Z,101383.47
2022-08-03T10:01:35.727Z,101376.66
2022-08-03T10:04:05.180Z,101377.06
2022-08-03T10:06:33.019Z,101385.47
2022-08-03T10:09:10.454Z,101381.22
2022-08-03T10:11:41.996Z,101377.97
2022-08-03T10:14:18.861Z,101379.63
2022-08-03T10:16:47.635Z,101381.25
2022-08-03T10:19:15.790Z,101378.22
2022-08-03T10:21:53.687Z,101379.31
2022-08-03T10:24:27.308Z,101376.22
2022-08-03T10:27:03.339Z,101370.28
2022-08-03T10:29:37.189Z,101381.91
2022-08-03T10:32:10.613Z,101381.38
2022-08-03T10:34:44.468Z,101379.78
2022-08-03T10:37:13.859Z,101373.59
2022-08-03T10:39:53.458Z,101370.66
2022-08-03T10:42:28.236Z,101365.09
2022-08-03T10:45:06.916Z,101372.69
2022-08-03T10:47:35.725Z,101379.03
2022-08-03T10:50:03.714Z,101373.84
2022-08-03T10:52:32.972Z,101359.50
2022-08-03T10:55:50.192Z,101367.78
2022-08-03T10:58:37.673Z,101356.72
2022-08-03T11:02:00.105Z,101348.09
2022-08-03T11:04:30.032Z,101349.28
2022-08-03T11:07:16.891Z,101349.97
2022-08-03T11:09:48.510Z,101342.25
2022-08-03T11:12:28.480Z,101345.75
2022-08-03T11:15:08.736Z,101354.13
2022-08-03T11:17:46.548Z,101341.72
2022-08-03T11:20:57.804Z,101340.44
2022-08-03T11:24:04.020Z,101338.91
2022-08-03T11:26:34.161Z,101338.34
2022-08-03T11:29:30.484Z,101333.66
2022-08-03T11:31:58.012Z,101336.00
2022-08-03T11:34:25.501Z,101325.03
2022-08-03T11:37:22.705Z,101330.31
2022-08-03T11:39:54.434Z,101328.19
2022-08-03T11:42:24.746Z,101331.81
2022-08-03T11:44:55.775Z,101331.72
2022-08-03T11:47:29.999Z,101344.13
2022-08-03T11:50:00.704Z,101340.59
2022-08-03T11:52:35.597Z,101325.66
2022-08-03T11:55:08.607Z,101334.31
2022-08-03T11:59:00.956Z,101332.31
2022-08-03T12:00:26.283Z,101334.69
2022-08-03T12:03:14.853Z,101347.81
2022-08-03T12:05:51.607Z,101339.88
2022-08-03T12:08:31.068Z,101331.19
2022-08-03T12:11:00.452Z,101324.22
2022-08-03T12:14:44.423Z,101327.38
2022-08-03T12:16:25.613Z,101328.31
2022-08-03T12:19:09.297Z,101336.84
2022-08-03T12:21:57.162Z,101330.75
2022-08-03T12:24:28.420Z,101323.91
2022-08-03T12:27:00.031Z,101322.44
2022-08-03T12:29:27.817Z,101336.63
2022-08-03T12:31:55.995Z,101330.41
2022-08-03T12:34:23.783Z,101324.69
2022-08-03T12:36:54.085Z,101325.16
2022-08-03T12:39:26.403Z,101330.22
2022-08-03T12:41:55.586Z,101323.03
2022-08-03T12:44:34.562Z,101318.19
2022-08-03T12:47:03.275Z,101320.72
2022-08-03T12:49:46.349Z,101324.63
2022-08-03T12:52:14.054Z,101326.31
2022-08-03T12:54:41.686Z,101324.19
2022-08-03T12:57:15.902Z,101322.09
2022-08-03T12:59:53.395Z,101311.72
2022-08-03T13:02:26.645Z,101319.34
2022-08-03T13:04:55.317Z,101327.97
2022-08-03T13:07:23.359Z,101316.34
2022-08-03T13:09:53.669Z,101312.03
2022-08-03T13:12:27.075Z,101319.28
2022-08-03T13:14:57.698Z,101309.78
2022-08-03T13:17:25.875Z,101303.78
2022-08-03T13:19:53.931Z,101314.00
2022-08-03T13:22:31.036Z,101310.06
2022-08-03T13:24:58.605Z,101305.00
2022-08-03T13:28:03.126Z,101303.25
2022-08-03T13:30:17.911Z,101310.06
2022-08-03T13:32:58.746Z,101307.28
2022-08-03T13:35:26.275Z,101308.84
2022-08-03T13:37:53.699Z,101308.44
2022-08-03T13:40:23.614Z,101298.19
2022-08-03T13:42:57.816Z,101294.34
2022-08-03T13:45:25.318Z,101291.44
2022-08-03T13:47:52.664Z,101292.91
2022-08-03T13:50:20.092Z,101292.09
2022-08-03T13:52:48.014Z,101295.00
2022-08-03T13:55:15.496Z,101291.91
2022-08-03T13:58:06.580Z,101283.34
2022-08-03T14:00:30.400Z,101281.91
2022-08-03T14:03:06.592Z,101283.31
2022-08-03T14:05:38.714Z,101277.66
2022-08-03T14:08:07.583Z,101274.59
2022-08-03T14:10:37.311Z,101265.53
2022-08-03T14:13:05.519Z,101263.50
2022-08-03T14:15:37.726Z,101262.88
2022-08-03T14:18:15.791Z,101261.38
2022-08-03T14:20:56.430Z,101250.53
2022-08-03T14:23:24.247Z,101252.44
2022-08-03T14:25:53.072Z,101250.03
2022-08-03T14:28:24.963Z,101257.81
2022-08-03T14:30:56.089Z,101246.31
2022-08-03T14:33:24.586Z,101249.97
2022-08-03T14:35:52.416Z,101245.25
2022-08-03T14:38:20.292Z,101247.34
2022-08-03T14:40:48.742Z,101244.09
2022-08-03T14:43:21.331Z,101241.91
2022-08-03T14:45:52.423Z,101238.09
2022-08-03T14:50:30.828Z,101231.44
2022-08-03T14:51:12.412Z,101227.06
2022-08-03T14:53:40.114Z,101231.78
2022-08-03T14:56:10.400Z,101233.78
2022-08-03T14:58:38.492Z,101229.22
2022-08-03T15:02:05.201Z,101223.03
2022-08-03T15:03:54.903Z,101185.16
2022-08-03T15:06:22.295Z,101187.63
2022-08-03T15:09:22.690Z,101183.66
2022-08-03T15:11:37.395Z,101180.19
2022-08-03T15:14:09.018Z,101181.31
2022-08-03T15:16:37.402Z,101180.91
2022-08-03T15:19:59.465Z,101180.16
2022-08-03T15:21:52.720Z,101183.59
2022-08-03T15:24:20.760Z,101181.34
2022-08-03T15:26:48.123Z,101174.03
2022-08-03T15:30:08.849Z,101177.25
2022-08-03T15:32:07.335Z,101168.19
2022-08-03T15:34:36.689Z,101168.19
2022-08-03T15:37:15.171Z,101172.94
2022-08-03T15:39:58.797Z,101158.72
2022-08-03T15:42:33.041Z,101159.44
2022-08-03T15:45:00.748Z,101151.84
2022-08-03T15:47:28.471Z,101149.00
2022-08-03T15:49:57.185Z,101149.84
2022-08-03T15:52:24.705Z,101146.13
2022-08-03T15:54:52.120Z,101143.25
2022-08-03T15:57:20.857Z,101142.66
2022-08-03T15:59:49.537Z,101139.78
2022-08-03T16:02:18.418Z,101141.78
2022-08-03T16:04:46.396Z,101130.13
2022-08-03T16:07:15.907Z,101129.00
2022-08-03T16:09:44.010Z,101133.84
2022-08-03T16:12:16.121Z,101127.38
2022-08-03T16:14:52.259Z,101126.38
2022-08-03T16:17:21.710Z,101129.72
2022-08-03T16:19:49.697Z,101127.25
2022-08-03T16:22:19.592Z,101129.50
2022-08-03T16:24:49.763Z,101121.31
2022-08-03T16:27:37.304Z,101128.63
2022-08-03T16:30:06.938Z,101124.50
2022-08-03T16:32:34.535Z,101118.91
2022-08-03T16:35:02.043Z,101125.03
2022-08-03T16:37:38.519Z,101124.75
2022-08-03T16:40:19.059Z,101119.78
2022-08-03T16:42:47.101Z,101114.81
2022-08-03T16:45:14.901Z,101119.59
2022-08-03T16:47:43.423Z,101119.06
2022-08-03T16:50:15.750Z,101119.72
2022-08-03T16:52:47.401Z,101122.38
2022-08-03T16:55:16.109Z,101122.50
2022-08-03T16:58:04.949Z,101120.03
2022-08-03T17:00:41.933Z,101113.31
2022-08-03T17:03:18.581Z,101117.03
2022-08-03T17:05:49.753Z,101114.06
2022-08-03T17:08:26.071Z,101115.13
2022-08-03T17:10:55.025Z,101115.47
2022-08-03T17:13:22.819Z,101116.22
2022-08-03T17:16:00.895Z,101114.84
2022-08-03T17:18:36.059Z,101116.59
2022-08-03T17:21:08.017Z,101112.22
2022-08-03T17:23:46.334Z,101119.91
2022-08-03T17:26:21.860Z,101118.03
2022-08-03T17:28:57.239Z,101114.06
2022-08-03T17:31:31.771Z,101118.78
2022-08-03T17:34:02.110Z,101117.16
2022-08-03T17:37:02.167Z,101120.72
2022-08-03T17:39:35.820Z,101119.41
2022-08-03T17:42:29.969Z,101113.28
2022-08-03T17:44:57.853Z,101115.03
2022-08-03T17:47:29.233Z,101123.53
2022-08-03T17:50:24.954Z,101124.44
2022-08-03T17:53:07.455Z,101123.88
2022-08-03T17:55:58.553Z,101130.44
2022-08-03T17:58:36.372Z,101136.22
2022-08-03T18:02:00.050Z,101137.72
2022-08-03T18:04:14.923Z,101138.38
2022-08-03T18:06:55.925Z,101133.97
2022-08-03T18:10:04.315Z,101136.66
2022-08-03T18:12:28.166Z,101138.94
2022-08-03T18:15:07.857Z,101138.19
2022-08-03T18:17:57.928Z,101132.53
2022-08-03T18:20:31.229Z,101140.91
2022-08-03T18:23:04.776Z,101136.75
2022-08-03T18:25:49.153Z,101129.00
2022-08-03T18:28:19.737Z,101141.13
2022-08-03T18:30:53.744Z,101139.84
2022-08-03T18:34:17.626Z,101148.53
2022-08-03T18:36:18.069Z,101145.13
2022-08-03T18:38:51.890Z,101137.13
2022-08-03T18:41:33.540Z,101135.00
2022-08-03T18:44:38.023Z,101145.50
2022-08-03T18:47:50.891Z,101135.41
2022-08-03T18:50:34.550Z,101152.50
2022-08-03T18:53:16.526Z,101148.81
2022-08-03T18:56:02.681Z,101142.41
2022-08-03T18:58:54.870Z,101149.63
2022-08-03T19:01:58.937Z,101150.03
2022-08-03T19:04:36.669Z,101153.97
2022-08-03T19:07:09.252Z,101146.53
2022-08-03T19:09:49.349Z,101150.09
2022-08-03T19:12:31.189Z,101157.03
2022-08-03T19:15:10.366Z,101159.22
2022-08-03T19:17:50.154Z,101149.09
2022-08-03T19:20:25.880Z,101154.16
2022-08-03T19:22:54.982Z,101158.19
2022-08-03T19:25:34.381Z,101157.31
2022-08-03T19:28:06.152Z,101167.66
2022-08-03T19:30:46.427Z,101163.59
2022-08-03T19:33:22.685Z,101163.25
2022-08-03T19:35:55.306Z,101170.31
2022-08-03T19:38:28.594Z,101170.03
2022-08-03T19:41:00.779Z,101171.25
2022-08-03T19:43:53.294Z,101169.28
2022-08-03T19:46:27.683Z,101174.16
2022-08-03T19:49:15.353Z,101173.38
2022-08-03T19:52:01.163Z,101175.19
2022-08-03T19:54:52.932Z,101173.88
2022-08-03T19:57:25.194Z,101181.41
2022-08-03T19:59:55.082Z,101170.06
2022-08-03T20:02:26.064Z,101173.41
2022-08-03T20:04:57.226Z,101175.94
2022-08-03T20:07:26.011Z,101182.94
2022-08-03T20:09:56.317Z,101183.41
2022-08-03T20:12:29.003Z,101182.47
2022-08-03T20:14:59.904Z,101179.91
2022-08-03T20:17:56.883Z,101189.78
2022-08-03T20:20:24.286Z,101175.22
2022-08-03T20:22:57.641Z,101177.59
2022-08-03T20:25:38.468Z,101182.81
2022-08-03T20:28:15.038Z,101174.19
2022-08-03T20:30:46.402Z,101173.69
2022-08-03T20:33:18.794Z,101173.94
2022-08-03T20:36:03.532Z,101175.75
2022-08-03T20:38:31.207Z,101175.69
2022-08-03T20:40:59.290Z,101172.34
2022-08-03T20:43:26.703Z,101172.75
2022-08-03T20:46:00.391Z,101172.28
2022-08-03T20:48:42.724Z,101177.97
2022-08-03T20:51:20.127Z,101173.72
2022-08-03T20:54:23.089Z,101171.28
2022-08-03T20:56:53.035Z,101185.97
2022-08-03T20:59:20.870Z,101179.97
2022-08-03T21:01:48.436Z,101185.75
2022-08-03T21:04:20.938Z,101176.78
2022-08-03T21:07:00.080Z,101175.03
2022-08-03T21:09:44.044Z,101168.22
2022-08-03T21:12:18.929Z,101169.00
2022-08-03T21:16:06.176Z,101163.09
2022-08-03T21:18:14.657Z,101164.25
2022-08-03T21:20:45.700Z,101164.47
2022-08-03T21:23:41.534Z,101166.16
2022-08-03T21:26:02.637Z,101167.31
2022-08-03T21:28:30.225Z,101161.97
2022-08-03T21:30:59.820Z,101164.25
2022-08-03T21:33:28.141Z,101161.91
2022-08-03T21:35:55.632Z,101160.53
2022-08-03T21:38:29.667Z,101156.88
2022-08-03T21:40:58.614Z,101157.91
2022-08-03T21:43:25.818Z,101157.03
2022-08-03T21:46:01.051Z,101151.47
2022-08-03T21:48:37.233Z,101148.19
2022-08-03T21:51:09.373Z,101150.25
2022-08-03T21:54:00.295Z,101149.50
2022-08-03T21:56:27.988Z,101150.75
2022-08-03T21:59:04.502Z,101148.38
2022-08-03T22:01:35.633Z,101156.69
2022-08-03T22:04:09.393Z,101146.88
2022-08-03T22:06:55.207Z,101138.97
2022-08-03T22:09:22.984Z,101144.50
2022-08-03T22:11:54.118Z,101132.44
2022-08-03T22:14:40.731Z,101141.63
2022-08-03T22:17:07.875Z,101132.59
2022-08-03T22:19:35.994Z,101130.84
2022-08-03T22:22:08.539Z,101136.28
2022-08-03T22:24:38.811Z,101124.91
2022-08-03T22:27:24.614Z,101128.94
2022-08-03T22:29:53.075Z,101123.59
2022-08-03T22:32:20.596Z,101129.22
2022-08-03T22:34:49.436Z,101126.84
2022-08-03T22:37:19.376Z,101129.00
2022-08-03T22:39:46.968Z,101126.63
2022-08-03T22:42:14.213Z,101121.00
2022-08-03T22:44:41.254Z,101122.69
2022-08-03T22:47:10.525Z,101127.38
2022-08-03T22:49:37.898Z,101114.38
2022-08-03T22:52:07.496Z,101123.63
2022-08-03T22:54:35.931Z,101120.69
2022-08-03T22:57:05.256Z,101122.22
2022-08-03T22:59:41.438Z,101121.47
2022-08-03T23:02:21.783Z,101118.94
2022-08-03T23:05:01.627Z,101108.56
2022-08-03T23:07:32.864Z,101115.75
2022-08-03T23:10:04.299Z,101110.50
2022-08-03T23:12:36.938Z,101121.44
2022-08-03T23:15:08.829Z,101116.00
2022-08-03T23:17:57.415Z,101118.69
2022-08-03T23:20:26.846Z,101116.97
2022-08-03T23:22:57.814Z,101118.84
2022-08-03T23:25:25.436Z,101120.50
2022-08-03T23:28:05.627Z,101121.44
2022-08-03T23:30:37.214Z,101115.13
2022-08-03T23:33:06.564Z,101115.13
2022-08-03T23:36:29.005Z,101107.00
2022-08-03T23:38:40.382Z,101112.53
2022-08-03T23:41:09.274Z,101110.16
2022-08-03T23:43:44.965Z,101110.41
2022-08-03T23:46:21.203Z,101104.63
2022-08-03T23:48:48.353Z,101110.13
2022-08-03T23:51:44.638Z,101115.63
2022-08-03T23:54:41.248Z,101110.38
2022-08-03T23:57:51.064Z,101111.31
